Aviation Digital Data Service (ADDS)

Output produced by METARs form (1259 UTC 24 July 2014)
found at http://aviationweather.gov/adds/metars/
 
KBDR 241147Z 2412/2512 34010KT P6SM FEW050 SCT080 BKN150 
     FM241900 17008KT P6SM SCT060 SCT250 
     FM242300 02005KT P6SM SCT060 SCT250